CMA CGM Loire — 9HA3739 — position and weather

sailwx.info

Track history (hours):
 
Tides and Currents Weather Stations Pressure Air Temp Water Temp Dewpoint Dewpoint Depression Visibility Wind Speed Wind Dir Waves Ship Positions

CMA CGM Loire

Last reported at 2018-Feb-16 20:59 UTC. Time now 2018-Feb-20 07:21 UTC.
Position N 01°22' E 104°26'.

Length 300 m; draft 12.5 m.

Type: Ship (hazmat cat A). MMSI: 229947000.

Date/timePositionNaut miles runAvg speedWind from/ knotsBaromVisibWave heightAir tempDewpointWater temp
2018-Feb-16 20:59N 01°22' E 104°26'1817.4
2018-Feb-16 19:56N 01°16' E 104°09'819.0
2018-Feb-16 19:30N 01°14' E 104°01'917.9
2018-Feb-16 19:00N 01°12' E 103°52'4 8.2
2018-Feb-16 18:30N 01°13' E 103°48'3 6.9
2018-Feb-16 18:00N 01°16' E 103°47'0 0.7
2018-Feb-16 17:27N 01°16' E 103°47'0 0.0
2018-Feb-16 17:00N 01°16' E 103°47'0 0.0
2018-Feb-16 16:24N 01°16' E 103°47'0 0.0
2018-Feb-16 15:57N 01°16' E 103°47'0 0.0
2018-Feb-16 15:27N 01°16' E 103°47'0 0.0
2018-Feb-16 14:57N 01°16' E 103°47'0 0.0
2018-Feb-16 14:27N 01°16' E 103°47'0 0.0
2018-Feb-16 13:57N 01°16' E 103°47'0 0.0
2018-Feb-16 13:27N 01°16' E 103°47'0 0.0
2018-Feb-16 12:57N 01°16' E 103°47'0 0.0
2018-Feb-16 12:27N 01°16' E 103°47'0 0.0
2018-Feb-16 11:57N 01°16' E 103°47'0 0.0
2018-Feb-16 11:30N 01°16' E 103°47'0 0.0
2018-Feb-16 10:45N 01°16' E 103°47'0 0.0
2018-Feb-16 10:30N 01°16' E 103°47'0 0.0
2018-Feb-16 09:57N 01°16' E 103°47'0 0.0
2018-Feb-16 09:15N 01°16' E 103°47'0 0.0
2018-Feb-16 08:51N 01°16' E 103°47'0 0.0
2018-Feb-16 08:27N 01°16' E 103°47'0 0.0
2018-Feb-16 07:57N 01°16' E 103°47'0 0.0
2018-Feb-16 07:27N 01°16' E 103°47'0 0.0
2018-Feb-16 06:57N 01°16' E 103°47'0 0.0
2018-Feb-16 06:18N 01°16' E 103°47'0 0.0
2018-Feb-16 05:54N 01°16' E 103°47'0 0.0
2018-Feb-16 05:24N 01°16' E 103°47'0 0.0
2018-Feb-16 04:51N 01°16' E 103°47'0 0.0
2018-Feb-16 04:30N 01°16' E 103°47'0 0.0
2018-Feb-16 04:00N 01°16' E 103°47'0 0.0
2018-Feb-16 03:30N 01°16' E 103°47'0 0.0
2018-Feb-16 02:57N 01°16' E 103°47'0 0.0
2018-Feb-16 02:24N 01°16' E 103°47'0 0.0
2018-Feb-16 01:57N 01°16' E 103°47'0 0.0
2018-Feb-16 01:30N 01°16' E 103°47'0 0.0
2018-Feb-16 00:57N 01°16' E 103°47'0 0.0
2018-Feb-16 00:30N 01°16' E 103°47'0 0.0
2018-Feb-15 23:54N 01°16' E 103°47'0 0.0
2018-Feb-15 23:30N 01°16' E 103°47'0 0.0
2018-Feb-15 23:00N 01°16' E 103°47'0 0.0
2018-Feb-15 22:30N 01°16' E 103°47'0 0.0
2018-Feb-15 22:00N 01°16' E 103°47'0 0.0
2018-Feb-15 21:30N 01°16' E 103°47'0 0.0
2018-Feb-15 20:54N 01°16' E 103°47'0 0.0
2018-Feb-15 20:30N 01°16' E 103°47'0 0.0
2018-Feb-15 19:59N 01°16' E 103°47'0 0.0
2018-Feb-15 19:29N 01°16' E 103°47'0 0.0
2018-Feb-15 18:59N 01°16' E 103°47'0 0.0
2018-Feb-15 18:29N 01°16' E 103°47'0 0.0
2018-Feb-15 17:59N 01°16' E 103°47'0 0.0
2018-Feb-15 17:20N 01°16' E 103°47'0 0.0
2018-Feb-15 16:59N 01°16' E 103°47'0 0.0
2018-Feb-15 16:29N 01°16' E 103°47'0 0.0
2018-Feb-15 15:59N 01°16' E 103°47'0 0.6
2018-Feb-15 15:30N 01°16' E 103°47'1 1.7
2018-Feb-15 15:00N 01°16' E 103°46'3 5.5
2018-Feb-15 14:30N 01°15' E 103°44'5 9.2
2018-Feb-15 14:00N 01°12' E 103°40'4 7.4
2018-Feb-15 13:30N 01°13' E 103°36'4 7.7
2018-Feb-15 12:58N 01°11' E 103°32'510.9
2018-Feb-15 12:29N 01°10' E 103°27'3 5.8
2018-Feb-15 11:59N 01°12' E 103°25'3 6.2
2018-Feb-15 11:30N 01°14' E 103°22'5 9.8
2018-Feb-15 11:00N 01°17' E 103°19'510.4
2018-Feb-15 10:29N 01°21' E 103°14'  
Track history (hours):
 
Tides and Currents Weather Stations Pressure Air Temp Water Temp Dewpoint Dewpoint Depression Visibility Wind Speed Wind Dir Waves Ship Positions

CMA CGM Loire

Last reported at 2018-Feb-16 20:59 UTC. Time now 2018-Feb-20 07:21 UTC.
Position N 01°22' E 104°26'.

Length 300 m; draft 12.5 m.

Type: Ship (hazmat cat A). MMSI: 229947000.

Date/timePositionNaut miles runAvg speedWind from/ knotsBaromVisibWave heightAir tempDewpointWater temp
2018-Feb-16 20:59N 01°22' E 104°26'1817.4
2018-Feb-16 19:56N 01°16' E 104°09'819.0
2018-Feb-16 19:30N 01°14' E 104°01'917.9
2018-Feb-16 19:00N 01°12' E 103°52'4 8.2
2018-Feb-16 18:30N 01°13' E 103°48'3 6.9
2018-Feb-16 18:00N 01°16' E 103°47'0 0.7
2018-Feb-16 17:27N 01°16' E 103°47'0 0.0
2018-Feb-16 17:00N 01°16' E 103°47'0 0.0
2018-Feb-16 16:24N 01°16' E 103°47'0 0.0
2018-Feb-16 15:57N 01°16' E 103°47'0 0.0
2018-Feb-16 15:27N 01°16' E 103°47'0 0.0
2018-Feb-16 14:57N 01°16' E 103°47'0 0.0
2018-Feb-16 14:27N 01°16' E 103°47'0 0.0
2018-Feb-16 13:57N 01°16' E 103°47'0 0.0
2018-Feb-16 13:27N 01°16' E 103°47'0 0.0
2018-Feb-16 12:57N 01°16' E 103°47'0 0.0
2018-Feb-16 12:27N 01°16' E 103°47'0 0.0
2018-Feb-16 11:57N 01°16' E 103°47'0 0.0
2018-Feb-16 11:30N 01°16' E 103°47'0 0.0
2018-Feb-16 10:45N 01°16' E 103°47'0 0.0
2018-Feb-16 10:30N 01°16' E 103°47'0 0.0
2018-Feb-16 09:57N 01°16' E 103°47'0 0.0
2018-Feb-16 09:15N 01°16' E 103°47'0 0.0
2018-Feb-16 08:51N 01°16' E 103°47'0 0.0
2018-Feb-16 08:27N 01°16' E 103°47'0 0.0
2018-Feb-16 07:57N 01°16' E 103°47'0 0.0
2018-Feb-16 07:27N 01°16' E 103°47'0 0.0
2018-Feb-16 06:57N 01°16' E 103°47'0 0.0
2018-Feb-16 06:18N 01°16' E 103°47'0 0.0
2018-Feb-16 05:54N 01°16' E 103°47'0 0.0
2018-Feb-16 05:24N 01°16' E 103°47'0 0.0
2018-Feb-16 04:51N 01°16' E 103°47'0 0.0
2018-Feb-16 04:30N 01°16' E 103°47'0 0.0
2018-Feb-16 04:00N 01°16' E 103°47'0 0.0
2018-Feb-16 03:30N 01°16' E 103°47'0 0.0
2018-Feb-16 02:57N 01°16' E 103°47'0 0.0
2018-Feb-16 02:24N 01°16' E 103°47'0 0.0
2018-Feb-16 01:57N 01°16' E 103°47'0 0.0
2018-Feb-16 01:30N 01°16' E 103°47'0 0.0
2018-Feb-16 00:57N 01°16' E 103°47'0 0.0
2018-Feb-16 00:30N 01°16' E 103°47'0 0.0
2018-Feb-15 23:54N 01°16' E 103°47'0 0.0
2018-Feb-15 23:30N 01°16' E 103°47'0 0.0
2018-Feb-15 23:00N 01°16' E 103°47'0 0.0
2018-Feb-15 22:30N 01°16' E 103°47'0 0.0
2018-Feb-15 22:00N 01°16' E 103°47'0 0.0
2018-Feb-15 21:30N 01°16' E 103°47'0 0.0
2018-Feb-15 20:54N 01°16' E 103°47'0 0.0
2018-Feb-15 20:30N 01°16' E 103°47'0 0.0
2018-Feb-15 19:59N 01°16' E 103°47'0 0.0
2018-Feb-15 19:29N 01°16' E 103°47'0 0.0
2018-Feb-15 18:59N 01°16' E 103°47'0 0.0
2018-Feb-15 18:29N 01°16' E 103°47'0 0.0
2018-Feb-15 17:59N 01°16' E 103°47'0 0.0
2018-Feb-15 17:20N 01°16' E 103°47'0 0.0
2018-Feb-15 16:59N 01°16' E 103°47'0 0.0
2018-Feb-15 16:29N 01°16' E 103°47'0 0.0
2018-Feb-15 15:59N 01°16' E 103°47'0 0.6
2018-Feb-15 15:30N 01°16' E 103°47'1 1.7
2018-Feb-15 15:00N 01°16' E 103°46'3 5.5
2018-Feb-15 14:30N 01°15' E 103°44'5 9.2
2018-Feb-15 14:00N 01°12' E 103°40'4 7.4
2018-Feb-15 13:30N 01°13' E 103°36'4 7.7
2018-Feb-15 12:58N 01°11' E 103°32'510.9
2018-Feb-15 12:29N 01°10' E 103°27'3 5.8
2018-Feb-15 11:59N 01°12' E 103°25'3 6.2
2018-Feb-15 11:30N 01°14' E 103°22'5 9.8
2018-Feb-15 11:00N 01°17' E 103°19'510.4
2018-Feb-15 10:29N 01°21' E 103°14'  

Dump ship's entire track history